Currently 69°F in Hemet, California, USA
69°F
71°F / 53°F
calm
0.00"
Tuesday, January 16, 2018 2:48 PM PST

Hemet, California Weather Summary
Last 36 Hours

Temperature Winds Hourly Humidity Dewpoint
Time Report Norm Report Norm Max Gusts Precip. Rpt. Norm Rpt. Norm Pressure
1Tue 02:48 PM  69.3°F  65°F  calm  1 mph  none  0.00"  28%  30%  33°F  32°F  30.16"
Tue 02:00 PM  70.3°F  65°F  calm  2 mph  none  0.00"  23%  31%  29°F  32°F  30.16"
2Tue 01:02 PM  70.9°F  64°F  calm  1 mph  none  ----  21%  32%  27°F  32°F  30.17"
Tue 01:00 PM  70.3°F  64°F  calm  1 mph  none  0.00"  22%  32%  28°F  32°F  30.17"
Tue 12:00 PM  68.4°F  62°F  calm  1 mph  none  0.00"  23%  34%  28°F  33°F  30.17"
Tue 11:00 AM  62.6°F  60°F  calm  1 mph  none  0.00"  38%  38%  36°F  34°F  30.21"
Tue 10:00 AM  67.8°F  57°F  calm  calm  none  0.00"  28%  43%  32°F  34°F  30.19"
Tue 09:00 AM  60.6°F  55°F  calm  calm  none  0.00"  41%  44%  36°F  33°F  30.21"
Tue 08:00 AM  55.0°F  50°F  calm  calm  none  0.00"  38%  47%  29°F  30°F  30.19"
Tue 07:00 AM  54.1°F  48°F  calm  1 mph  none  0.00"  37%  47%  27°F  28°F  30.18"
Tue 06:00 AM  54.9°F  48°F  calm  1 mph  none  0.00"  36%  46%  27°F  27°F  30.16"
Tue 05:00 AM  53.6°F  48°F  calm  1 mph  none  0.00"  38%  46%  28°F  28°F  30.15"
Tue 04:00 AM  54.3°F  48°F  calm  1 mph  none  0.00"  37%  46%  27°F  28°F  30.17"
3Tue 03:04 AM  53.2°F  49°F  calm  1 mph  none  ----  41%  46%  29°F  28°F  30.17"
Tue 03:00 AM  53.6°F  49°F  calm  1 mph  none  0.00"  40%  46%  29°F  28°F  30.17"
Tue 02:00 AM  54.9°F  49°F  calm  1 mph  none  0.00"  39%  46%  29°F  28°F  30.18"
Tue 01:00 AM  55.0°F  49°F  calm  1 mph  none  0.00"  38%  46%  29°F  29°F  30.17"
Tue 12:00 AM  57.2°F  50°F  calm  1 mph  none  0.00"  35%  46%  29°F  29°F  30.18"
Mon 11:00 PM  58.8°F  50°F  calm  1 mph  none  0.00"  34%  46%  29°F  29°F  30.17"
Mon 10:00 PM  59.4°F  51°F  calm  1 mph  none  0.00"  31%  46%  27°F  29°F  30.16"
Mon 09:00 PM  58.3°F  52°F  calm  1 mph  none  0.00"  36%  45%  30°F  30°F  30.16"
Mon 08:00 PM  59.0°F  53°F  calm  1 mph  none  0.00"  35%  44%  30°F  30°F  30.14"
Mon 07:00 PM  61.3°F  54°F  calm  1 mph  none  0.00"  33%  43%  31°F  31°F  30.14"
Mon 06:00 PM  63.5°F  56°F  calm  2 mph  none  0.00"  27%  42%  28°F  32°F  30.15"
Mon 05:00 PM  66.4°F  60°F  calm  1 mph  none  0.00"  27%  38%  30°F  34°F  30.15"
Mon 04:00 PM  68.4°F  64°F  calm  1 mph  none  0.00"  24%  33%  29°F  33°F  30.13"
Mon 03:00 PM  71.8°F  66°F  calm  2 mph  none  0.00"  22%  30%  29°F  32°F  30.11"
Mon 02:00 PM  73.2°F  66°F  calm  2 mph  7 mph  0.00"  22%  31%  31°F  33°F  30.11"
Mon 01:00 PM  71.6°F  64°F  3 mph W  1 mph  none  0.00"  22%  32%  29°F  33°F  30.14"
Mon 12:00 PM  70.2°F  63°F  calm  1 mph  none  0.00"  25%  34%  31°F  33°F  30.14"
Mon 11:00 AM  67.8°F  60°F  calm  1 mph  none  0.00"  25%  38%  29°F  34°F  30.17"
Mon 10:00 AM  63.5°F  57°F  calm  calm  none  0.00"  35%  43%  34°F  34°F  30.18"
Mon 09:00 AM  61.5°F  55°F  calm  calm  none  0.00"  30%  44%  29°F  33°F  30.18"
Mon 08:00 AM  54.1°F  50°F  calm  calm  none  0.00"  33%  47%  24°F  30°F  30.17"
Mon 07:00 AM  53.2°F  48°F  calm  1 mph  none  0.00"  32%  47%  23°F  28°F  30.15"
Mon 06:00 AM  53.6°F  48°F  calm  1 mph  none  0.00"  33%  47%  24°F  28°F  30.13"
Mon 05:00 AM  53.2°F  48°F  calm  1 mph  none  0.00"  32%  47%  23°F  28°F  30.15"
Mon 04:00 AM  53.4°F  48°F  calm  1 mph  none  0.00"  32%  47%  23°F  28°F  30.15"
Mon 03:00 AM  53.8°F  49°F  calm  1 mph  none  0.00"  31%  47%  23°F  28°F  30.16"

  1. Current weather data. No green row appears if the current weather data is also the high or low for the current day.
  2. High temperature for the current day.
  3. Low temperature for the current day.

The Hemet weather pages are a service of WeatherCurrents. Hemet, California is located in the San Jacinto Valley, in western Riverside County, at the foot of the San Jacinto mountains.
Copyright ©Tue Jan 16 14:49:41 PST 2018  WeatherCurrents. All rights reserved. - Submit questions and comments - Privacy Policy

This page automatically refreshes every 10 minutes.